Nautilus Survey — LIXR — position and weather

sailwx.info

Track history (hours):
 
Tides and Currents Weather Stations Pressure Air Temp Water Temp Dewpoint Dewpoint Depression Visibility Wind Speed Wind Dir Waves Ship Positions

Nautilus Survey

Last reported at 2015-Jul-26 07:27 UTC. Time now 2015-Jul-30 12:14 UTC.
Position N 66°33' E 013°07'.

Length 22 m; draft 2 m.

Type: Dredging. MMSI: 259464000.

Date/timePositionNaut miles runAvg speedWind from/ knotsBaromVisibWave heightAir tempDewpointWater temp
2015-Jul-26 07:27N 66°33' E 013°07'8 9.2
2015-Jul-26 06:33N 66°28' E 012°52'4 4.0
2015-Jul-26 05:33N 66°24' E 012°50'0 0.0
2015-Jul-26 04:34N 66°24' E 012°50'0 0.0
2015-Jul-26 03:34N 66°24' E 012°50'0 0.0
2015-Jul-26 02:34N 66°24' E 012°50'0 0.0
2015-Jul-26 01:33N 66°24' E 012°50'0 0.0
2015-Jul-26 00:33N 66°24' E 012°50'0 0.0
2015-Jul-25 23:33N 66°24' E 012°50'0 0.0
2015-Jul-25 22:34N 66°24' E 012°50'0 0.0
2015-Jul-25 21:32N 66°24' E 012°50'0 0.0
2015-Jul-25 20:33N 66°24' E 012°50'0 0.0
2015-Jul-25 19:34N 66°24' E 012°50'0 0.0
2015-Jul-25 18:34N 66°24' E 012°50'4 1.2
2015-Jul-25 15:24N 66°23' E 012°41'2 2.4
2015-Jul-25 14:33N 66°23' E 012°36'0 0.1
2015-Jul-25 13:34N 66°23' E 012°36'0 0.0
2015-Jul-25 12:33N 66°23' E 012°36'0 0.0
2015-Jul-25 11:34N 66°23' E 012°35'0 0.0
2015-Jul-25 10:34N 66°23' E 012°35'0 0.0
2015-Jul-25 09:34N 66°23' E 012°35'0 0.0
2015-Jul-25 08:34N 66°23' E 012°36'0 0.0
2015-Jul-25 07:33N 66°23' E 012°36'0 0.0
2015-Jul-25 06:33N 66°23' E 012°36'0 0.0
2015-Jul-25 05:33N 66°23' E 012°36'0 0.0
2015-Jul-25 04:33N 66°23' E 012°36'0 0.0
2015-Jul-25 03:33N 66°23' E 012°36'0 0.0
2015-Jul-25 02:33N 66°23' E 012°36'0 0.0
2015-Jul-25 01:34N 66°23' E 012°36'0 0.0
2015-Jul-25 00:34N 66°23' E 012°36'0 0.0
2015-Jul-24 23:34N 66°23' E 012°36'0 0.0
2015-Jul-24 22:33N 66°23' E 012°36'0 0.0
2015-Jul-24 21:34N 66°23' E 012°36'0 0.0
2015-Jul-24 20:33N 66°23' E 012°36'0 0.0
2015-Jul-24 19:34N 66°23' E 012°36'0 0.0
2015-Jul-24 18:33N 66°23' E 012°36'0 0.0
2015-Jul-24 17:33N 66°23' E 012°36'0 0.0
2015-Jul-24 16:33N 66°23' E 012°36'0 0.0
2015-Jul-24 15:34N 66°23' E 012°36'0 0.0
2015-Jul-24 14:34N 66°23' E 012°36'0 0.0
2015-Jul-24 13:34N 66°23' E 012°35'0 0.0
2015-Jul-24 12:33N 66°23' E 012°35'0 0.0
2015-Jul-24 11:33N 66°23' E 012°35'0 0.0
2015-Jul-24 10:33N 66°23' E 012°35'0 0.0
2015-Jul-24 09:33N 66°23' E 012°35'0 0.0
2015-Jul-24 08:33N 66°23' E 012°35'0 0.0
2015-Jul-24 07:33N 66°23' E 012°35'0 0.0
2015-Jul-24 06:34N 66°23' E 012°35'0 0.0
2015-Jul-24 05:34N 66°23' E 012°36'0 0.0
2015-Jul-24 04:34N 66°23' E 012°36'0 0.0
2015-Jul-24 03:33N 66°23' E 012°36'0 0.0
2015-Jul-24 02:33N 66°23' E 012°36'0 0.0
2015-Jul-24 01:33N 66°23' E 012°36'0 0.0
2015-Jul-24 00:34N 66°23' E 012°36'0 0.0
2015-Jul-23 23:34N 66°23' E 012°36'0 0.0
2015-Jul-23 22:34N 66°23' E 012°36'0 0.0
2015-Jul-23 21:34N 66°23' E 012°36'0 0.0
2015-Jul-23 20:34N 66°23' E 012°36'0 0.0
2015-Jul-23 19:34N 66°23' E 012°36'0 0.0
2015-Jul-23 18:34N 66°23' E 012°36'0 0.0
2015-Jul-23 17:33N 66°23' E 012°35'0 0.0
2015-Jul-23 16:34N 66°23' E 012°35'0 0.0
2015-Jul-23 15:34N 66°23' E 012°35'0 0.0
2015-Jul-23 14:34N 66°23' E 012°35'0 0.1
2015-Jul-23 13:33N 66°23' E 012°36'0 0.0
2015-Jul-23 12:34N 66°23' E 012°36'0 0.0
2015-Jul-23 11:34N 66°23' E 012°36'0 0.0
2015-Jul-23 10:33N 66°23' E 012°36'0 0.1
2015-Jul-23 09:34N 66°23' E 012°36'5 5.1
2015-Jul-23 08:33N 66°23' E 012°48'0 0.0
2015-Jul-23 07:34N 66°23' E 012°48'0 0.0
2015-Jul-23 06:32N 66°23' E 012°48'0 0.0
2015-Jul-23 05:33N 66°23' E 012°48'0 0.0
2015-Jul-23 04:34N 66°23' E 012°48'0 0.0
2015-Jul-23 03:33N 66°23' E 012°48'0 0.0
2015-Jul-23 02:33N 66°23' E 012°48'0 0.0
2015-Jul-23 01:33N 66°23' E 012°48'0 0.0
2015-Jul-23 00:33N 66°23' E 012°48'0 0.0
2015-Jul-22 23:34N 66°23' E 012°48'0 0.0
2015-Jul-22 22:33N 66°23' E 012°48'0 0.0
2015-Jul-22 21:33N 66°23' E 012°48'0 0.0
2015-Jul-22 20:34N 66°23' E 012°48'0 0.0
2015-Jul-22 19:33N 66°23' E 012°48'0 0.0
2015-Jul-22 18:32N 66°23' E 012°48'0 0.0
2015-Jul-22 17:33N 66°23' E 012°48'0 0.0
2015-Jul-22 16:33N 66°23' E 012°48'0 0.0
2015-Jul-22 15:34N 66°23' E 012°48'0 0.0
2015-Jul-22 14:15N 66°23' E 012°48'0 0.0
2015-Jul-22 13:34N 66°23' E 012°48'0 0.0
2015-Jul-22 12:33N 66°23' E 012°48'0 0.0
2015-Jul-22 11:34N 66°23' E 012°48'0 0.0
2015-Jul-22 10:34N 66°23' E 012°48'0 0.0
2015-Jul-22 09:34N 66°23' E 012°48'0 0.0
2015-Jul-22 08:33N 66°23' E 012°48'0 0.0
2015-Jul-22 07:25N 66°23' E 012°49'0 0.0
2015-Jul-22 06:16N 66°23' E 012°49'0 0.0
2015-Jul-22 02:32N 66°23' E 012°49'0 0.0
2015-Jul-22 01:29N 66°23' E 012°49'0 0.0
2015-Jul-22 00:22N 66°23' E 012°49'0 0.0
2015-Jul-21 23:32N 66°23' E 012°49'0 0.0
2015-Jul-21 22:32N 66°23' E 012°49'0 0.0
2015-Jul-21 21:33N 66°23' E 012°49'0 0.0
2015-Jul-21 20:33N 66°23' E 012°49'0 0.0
2015-Jul-21 16:32N 66°23' E 012°49'0 0.0
2015-Jul-21 15:33N 66°23' E 012°49'0 0.0
2015-Jul-21 14:32N 66°23' E 012°49'0 0.4
2015-Jul-21 13:34N 66°23' E 012°48'7 6.6
2015-Jul-21 12:33N 66°17' E 012°38'9 0.4
2015-Jul-20 13:19N 66°22' E 012°58'7 0.7
2015-Jul-20 03:23N 66°29' E 012°58'15 1.4
2015-Jul-19 16:31N 66°44' E 013°12'12 3.5
2015-Jul-19 13:03N 66°52' E 013°35'6 9.0
2015-Jul-19 12:26N 66°57' E 013°29'7 8.5
2015-Jul-19 11:33N 67°01' E 013°44'9 8.7
2015-Jul-19 10:33N 67°08' E 013°59'1 1.2
2015-Jul-19 09:33N 67°09' E 014°01'0 0.0
2015-Jul-19 08:31N 67°09' E 014°01'0 0.1
2015-Jul-19 07:34N 67°09' E 014°01'1 0.5
2015-Jul-19 06:34N 67°09' E 014°00'0 0.0
2015-Jul-19 05:34N 67°09' E 014°00'0 0.0
2015-Jul-19 04:34N 67°09' E 014°00'0 0.0
2015-Jul-19 00:34N 67°09' E 014°00'0 0.0
2015-Jul-18 23:34N 67°09' E 014°00'0 0.0
2015-Jul-18 22:33N 67°09' E 014°00'0 0.0
2015-Jul-18 21:34N 67°09' E 014°00'0 0.0
2015-Jul-18 20:34N 67°09' E 014°00'0 0.0
2015-Jul-18 19:33N 67°09' E 014°00'0 0.0
2015-Jul-18 18:33N 67°09' E 014°00'1 0.5
2015-Jul-18 17:34N 67°09' E 014°01'0 0.1
2015-Jul-18 16:34N 67°09' E 014°01'0 0.0
2015-Jul-18 15:33N 67°09' E 014°01'0 0.0
2015-Jul-18 14:34N 67°09' E 014°01'0 0.1
2015-Jul-18 13:34N 67°09' E 014°01'0 0.0
2015-Jul-18 12:33N 67°09' E 014°01'0 0.0
2015-Jul-18 11:33N 67°09' E 014°01'0 0.0
2015-Jul-18 10:33N 67°09' E 014°01'0 0.0
2015-Jul-18 09:33N 67°09' E 014°01'0 0.0
2015-Jul-18 08:33N 67°09' E 014°01'0 0.0
2015-Jul-18 07:33N 67°09' E 014°01'0 0.2
2015-Jul-18 06:34N 67°09' E 014°00'0 0.2
2015-Jul-18 05:33N 67°09' E 014°00'0 0.0
2015-Jul-18 04:33N 67°09' E 014°00'0 0.0
2015-Jul-18 03:34N 67°09' E 014°00'0 0.0
2015-Jul-18 02:33N 67°09' E 014°00'0 0.0
2015-Jul-18 01:34N 67°09' E 014°00'0 0.0
2015-Jul-18 00:34N 67°09' E 014°00'0 0.0
2015-Jul-17 23:34N 67°09' E 014°00'0 0.0
2015-Jul-17 22:34N 67°09' E 014°00'0 0.0
2015-Jul-17 21:33N 67°09' E 014°00'0 0.0
2015-Jul-17 20:33N 67°09' E 014°00'0 0.0
2015-Jul-17 19:34N 67°09' E 014°00'0 0.0
2015-Jul-17 18:33N 67°09' E 014°00'0 0.4
2015-Jul-17 17:33N 67°09' E 014°01'0 0.0
2015-Jul-17 16:34N 67°09' E 014°01'0 0.2
2015-Jul-17 15:33N 67°09' E 014°01'0 0.1
2015-Jul-17 14:33N 67°09' E 014°00'0 0.2
2015-Jul-17 13:33N 67°08' E 014°00'0 0.0
2015-Jul-17 12:28N 67°08' E 014°00'0 0.0
2015-Jul-17 11:19N 67°08' E 014°00'0 0.5
2015-Jul-17 10:33N 67°09' E 014°01'0 0.0
2015-Jul-17 09:34N 67°09' E 014°01'1 0.9
2015-Jul-17 08:33N 67°09' E 013°59'1 0.9
2015-Jul-17 07:34N 67°09' E 014°01'0 0.4
2015-Jul-17 06:34N 67°08' E 014°00'0 0.4
2015-Jul-17 05:34N 67°09' E 014°01'0 0.0
2015-Jul-17 04:34N 67°09' E 014°01'0 0.0
2015-Jul-17 03:33N 67°09' E 014°01'0 0.0
2015-Jul-17 02:33N 67°09' E 014°01'0 0.0
2015-Jul-17 01:33N 67°09' E 014°01'0 0.0
2015-Jul-17 00:33N 67°09' E 014°01'0 0.0
2015-Jul-16 23:34N 67°09' E 014°01'0 0.0
2015-Jul-16 22:33N 67°09' E 014°01'0 0.0
2015-Jul-16 21:33N 67°09' E 014°01'0 0.0
2015-Jul-16 20:33N 67°09' E 014°01'0 0.0
2015-Jul-16 19:33N 67°09' E 014°01'0 0.0
2015-Jul-16 18:33N 67°09' E 014°01'1 0.6
2015-Jul-16 17:34N 67°09' E 013°59'0 0.1
2015-Jul-16 16:34N 67°09' E 013°59'0 0.2
2015-Jul-16 15:32N 67°09' E 013°59'0 0.1
2015-Jul-16 14:33N 67°09' E 013°59'0 0.1
2015-Jul-16 13:33N 67°09' E 013°59'0 0.3
2015-Jul-16 12:32N 67°09' E 013°60'0 0.4
2015-Jul-16 11:33N 67°09' E 014°01'0 0.0
2015-Jul-16 10:33N 67°09' E 014°01'0 0.0
2015-Jul-16 09:33N 67°09' E 014°01'1 1.1
2015-Jul-16 08:33N 67°08' E 013°58'1 1.1
2015-Jul-16 07:33N 67°09' E 014°01'  
Track history (hours):
 
Tides and Currents Weather Stations Pressure Air Temp Water Temp Dewpoint Dewpoint Depression Visibility Wind Speed Wind Dir Waves Ship Positions

Nautilus Survey

Last reported at 2015-Jul-26 07:27 UTC. Time now 2015-Jul-30 12:14 UTC.
Position N 66°33' E 013°07'.

Length 22 m; draft 2 m.

Type: Dredging. MMSI: 259464000.

Date/timePositionNaut miles runAvg speedWind from/ knotsBaromVisibWave heightAir tempDewpointWater temp
2015-Jul-26 07:27N 66°33' E 013°07'8 9.2
2015-Jul-26 06:33N 66°28' E 012°52'4 4.0
2015-Jul-26 05:33N 66°24' E 012°50'0 0.0
2015-Jul-26 04:34N 66°24' E 012°50'0 0.0
2015-Jul-26 03:34N 66°24' E 012°50'0 0.0
2015-Jul-26 02:34N 66°24' E 012°50'0 0.0
2015-Jul-26 01:33N 66°24' E 012°50'0 0.0
2015-Jul-26 00:33N 66°24' E 012°50'0 0.0
2015-Jul-25 23:33N 66°24' E 012°50'0 0.0
2015-Jul-25 22:34N 66°24' E 012°50'0 0.0
2015-Jul-25 21:32N 66°24' E 012°50'0 0.0
2015-Jul-25 20:33N 66°24' E 012°50'0 0.0
2015-Jul-25 19:34N 66°24' E 012°50'0 0.0
2015-Jul-25 18:34N 66°24' E 012°50'4 1.2
2015-Jul-25 15:24N 66°23' E 012°41'2 2.4
2015-Jul-25 14:33N 66°23' E 012°36'0 0.1
2015-Jul-25 13:34N 66°23' E 012°36'0 0.0
2015-Jul-25 12:33N 66°23' E 012°36'0 0.0
2015-Jul-25 11:34N 66°23' E 012°35'0 0.0
2015-Jul-25 10:34N 66°23' E 012°35'0 0.0
2015-Jul-25 09:34N 66°23' E 012°35'0 0.0
2015-Jul-25 08:34N 66°23' E 012°36'0 0.0
2015-Jul-25 07:33N 66°23' E 012°36'0 0.0
2015-Jul-25 06:33N 66°23' E 012°36'0 0.0
2015-Jul-25 05:33N 66°23' E 012°36'0 0.0
2015-Jul-25 04:33N 66°23' E 012°36'0 0.0
2015-Jul-25 03:33N 66°23' E 012°36'0 0.0
2015-Jul-25 02:33N 66°23' E 012°36'0 0.0
2015-Jul-25 01:34N 66°23' E 012°36'0 0.0
2015-Jul-25 00:34N 66°23' E 012°36'0 0.0
2015-Jul-24 23:34N 66°23' E 012°36'0 0.0
2015-Jul-24 22:33N 66°23' E 012°36'0 0.0
2015-Jul-24 21:34N 66°23' E 012°36'0 0.0
2015-Jul-24 20:33N 66°23' E 012°36'0 0.0
2015-Jul-24 19:34N 66°23' E 012°36'0 0.0
2015-Jul-24 18:33N 66°23' E 012°36'0 0.0
2015-Jul-24 17:33N 66°23' E 012°36'0 0.0
2015-Jul-24 16:33N 66°23' E 012°36'0 0.0
2015-Jul-24 15:34N 66°23' E 012°36'0 0.0
2015-Jul-24 14:34N 66°23' E 012°36'0 0.0
2015-Jul-24 13:34N 66°23' E 012°35'0 0.0
2015-Jul-24 12:33N 66°23' E 012°35'0 0.0
2015-Jul-24 11:33N 66°23' E 012°35'0 0.0
2015-Jul-24 10:33N 66°23' E 012°35'0 0.0
2015-Jul-24 09:33N 66°23' E 012°35'0 0.0
2015-Jul-24 08:33N 66°23' E 012°35'0 0.0
2015-Jul-24 07:33N 66°23' E 012°35'0 0.0
2015-Jul-24 06:34N 66°23' E 012°35'0 0.0
2015-Jul-24 05:34N 66°23' E 012°36'0 0.0
2015-Jul-24 04:34N 66°23' E 012°36'0 0.0
2015-Jul-24 03:33N 66°23' E 012°36'0 0.0
2015-Jul-24 02:33N 66°23' E 012°36'0 0.0
2015-Jul-24 01:33N 66°23' E 012°36'0 0.0
2015-Jul-24 00:34N 66°23' E 012°36'0 0.0
2015-Jul-23 23:34N 66°23' E 012°36'0 0.0
2015-Jul-23 22:34N 66°23' E 012°36'0 0.0
2015-Jul-23 21:34N 66°23' E 012°36'0 0.0
2015-Jul-23 20:34N 66°23' E 012°36'0 0.0
2015-Jul-23 19:34N 66°23' E 012°36'0 0.0
2015-Jul-23 18:34N 66°23' E 012°36'0 0.0
2015-Jul-23 17:33N 66°23' E 012°35'0 0.0
2015-Jul-23 16:34N 66°23' E 012°35'0 0.0
2015-Jul-23 15:34N 66°23' E 012°35'0 0.0
2015-Jul-23 14:34N 66°23' E 012°35'0 0.1
2015-Jul-23 13:33N 66°23' E 012°36'0 0.0
2015-Jul-23 12:34N 66°23' E 012°36'0 0.0
2015-Jul-23 11:34N 66°23' E 012°36'0 0.0
2015-Jul-23 10:33N 66°23' E 012°36'0 0.1
2015-Jul-23 09:34N 66°23' E 012°36'5 5.1
2015-Jul-23 08:33N 66°23' E 012°48'0 0.0
2015-Jul-23 07:34N 66°23' E 012°48'0 0.0
2015-Jul-23 06:32N 66°23' E 012°48'0 0.0
2015-Jul-23 05:33N 66°23' E 012°48'0 0.0
2015-Jul-23 04:34N 66°23' E 012°48'0 0.0
2015-Jul-23 03:33N 66°23' E 012°48'0 0.0
2015-Jul-23 02:33N 66°23' E 012°48'0 0.0
2015-Jul-23 01:33N 66°23' E 012°48'0 0.0
2015-Jul-23 00:33N 66°23' E 012°48'0 0.0
2015-Jul-22 23:34N 66°23' E 012°48'0 0.0
2015-Jul-22 22:33N 66°23' E 012°48'0 0.0
2015-Jul-22 21:33N 66°23' E 012°48'0 0.0
2015-Jul-22 20:34N 66°23' E 012°48'0 0.0
2015-Jul-22 19:33N 66°23' E 012°48'0 0.0
2015-Jul-22 18:32N 66°23' E 012°48'0 0.0
2015-Jul-22 17:33N 66°23' E 012°48'0 0.0
2015-Jul-22 16:33N 66°23' E 012°48'0 0.0
2015-Jul-22 15:34N 66°23' E 012°48'0 0.0
2015-Jul-22 14:15N 66°23' E 012°48'0 0.0
2015-Jul-22 13:34N 66°23' E 012°48'0 0.0
2015-Jul-22 12:33N 66°23' E 012°48'0 0.0
2015-Jul-22 11:34N 66°23' E 012°48'0 0.0
2015-Jul-22 10:34N 66°23' E 012°48'0 0.0
2015-Jul-22 09:34N 66°23' E 012°48'0 0.0
2015-Jul-22 08:33N 66°23' E 012°48'0 0.0
2015-Jul-22 07:25N 66°23' E 012°49'0 0.0
2015-Jul-22 06:16N 66°23' E 012°49'0 0.0
2015-Jul-22 02:32N 66°23' E 012°49'0 0.0
2015-Jul-22 01:29N 66°23' E 012°49'0 0.0
2015-Jul-22 00:22N 66°23' E 012°49'0 0.0
2015-Jul-21 23:32N 66°23' E 012°49'0 0.0
2015-Jul-21 22:32N 66°23' E 012°49'0 0.0
2015-Jul-21 21:33N 66°23' E 012°49'0 0.0
2015-Jul-21 20:33N 66°23' E 012°49'0 0.0
2015-Jul-21 16:32N 66°23' E 012°49'0 0.0
2015-Jul-21 15:33N 66°23' E 012°49'0 0.0
2015-Jul-21 14:32N 66°23' E 012°49'0 0.4
2015-Jul-21 13:34N 66°23' E 012°48'7 6.6
2015-Jul-21 12:33N 66°17' E 012°38'9 0.4
2015-Jul-20 13:19N 66°22' E 012°58'7 0.7
2015-Jul-20 03:23N 66°29' E 012°58'15 1.4
2015-Jul-19 16:31N 66°44' E 013°12'12 3.5
2015-Jul-19 13:03N 66°52' E 013°35'6 9.0
2015-Jul-19 12:26N 66°57' E 013°29'7 8.5
2015-Jul-19 11:33N 67°01' E 013°44'9 8.7
2015-Jul-19 10:33N 67°08' E 013°59'1 1.2
2015-Jul-19 09:33N 67°09' E 014°01'0 0.0
2015-Jul-19 08:31N 67°09' E 014°01'0 0.1
2015-Jul-19 07:34N 67°09' E 014°01'1 0.5
2015-Jul-19 06:34N 67°09' E 014°00'0 0.0
2015-Jul-19 05:34N 67°09' E 014°00'0 0.0
2015-Jul-19 04:34N 67°09' E 014°00'0 0.0
2015-Jul-19 00:34N 67°09' E 014°00'0 0.0
2015-Jul-18 23:34N 67°09' E 014°00'0 0.0
2015-Jul-18 22:33N 67°09' E 014°00'0 0.0
2015-Jul-18 21:34N 67°09' E 014°00'0 0.0
2015-Jul-18 20:34N 67°09' E 014°00'0 0.0
2015-Jul-18 19:33N 67°09' E 014°00'0 0.0
2015-Jul-18 18:33N 67°09' E 014°00'1 0.5
2015-Jul-18 17:34N 67°09' E 014°01'0 0.1
2015-Jul-18 16:34N 67°09' E 014°01'0 0.0
2015-Jul-18 15:33N 67°09' E 014°01'0 0.0
2015-Jul-18 14:34N 67°09' E 014°01'0 0.1
2015-Jul-18 13:34N 67°09' E 014°01'0 0.0
2015-Jul-18 12:33N 67°09' E 014°01'0 0.0
2015-Jul-18 11:33N 67°09' E 014°01'0 0.0
2015-Jul-18 10:33N 67°09' E 014°01'0 0.0
2015-Jul-18 09:33N 67°09' E 014°01'0 0.0
2015-Jul-18 08:33N 67°09' E 014°01'0 0.0
2015-Jul-18 07:33N 67°09' E 014°01'0 0.2
2015-Jul-18 06:34N 67°09' E 014°00'0 0.2
2015-Jul-18 05:33N 67°09' E 014°00'0 0.0
2015-Jul-18 04:33N 67°09' E 014°00'0 0.0
2015-Jul-18 03:34N 67°09' E 014°00'0 0.0
2015-Jul-18 02:33N 67°09' E 014°00'0 0.0
2015-Jul-18 01:34N 67°09' E 014°00'0 0.0
2015-Jul-18 00:34N 67°09' E 014°00'0 0.0
2015-Jul-17 23:34N 67°09' E 014°00'0 0.0
2015-Jul-17 22:34N 67°09' E 014°00'0 0.0
2015-Jul-17 21:33N 67°09' E 014°00'0 0.0
2015-Jul-17 20:33N 67°09' E 014°00'0 0.0
2015-Jul-17 19:34N 67°09' E 014°00'0 0.0
2015-Jul-17 18:33N 67°09' E 014°00'0 0.4
2015-Jul-17 17:33N 67°09' E 014°01'0 0.0
2015-Jul-17 16:34N 67°09' E 014°01'0 0.2
2015-Jul-17 15:33N 67°09' E 014°01'0 0.1
2015-Jul-17 14:33N 67°09' E 014°00'0 0.2
2015-Jul-17 13:33N 67°08' E 014°00'0 0.0
2015-Jul-17 12:28N 67°08' E 014°00'0 0.0
2015-Jul-17 11:19N 67°08' E 014°00'0 0.5
2015-Jul-17 10:33N 67°09' E 014°01'0 0.0
2015-Jul-17 09:34N 67°09' E 014°01'1 0.9
2015-Jul-17 08:33N 67°09' E 013°59'1 0.9
2015-Jul-17 07:34N 67°09' E 014°01'0 0.4
2015-Jul-17 06:34N 67°08' E 014°00'0 0.4
2015-Jul-17 05:34N 67°09' E 014°01'0 0.0
2015-Jul-17 04:34N 67°09' E 014°01'0 0.0
2015-Jul-17 03:33N 67°09' E 014°01'0 0.0
2015-Jul-17 02:33N 67°09' E 014°01'0 0.0
2015-Jul-17 01:33N 67°09' E 014°01'0 0.0
2015-Jul-17 00:33N 67°09' E 014°01'0 0.0
2015-Jul-16 23:34N 67°09' E 014°01'0 0.0
2015-Jul-16 22:33N 67°09' E 014°01'0 0.0
2015-Jul-16 21:33N 67°09' E 014°01'0 0.0
2015-Jul-16 20:33N 67°09' E 014°01'0 0.0
2015-Jul-16 19:33N 67°09' E 014°01'0 0.0
2015-Jul-16 18:33N 67°09' E 014°01'1 0.6
2015-Jul-16 17:34N 67°09' E 013°59'0 0.1
2015-Jul-16 16:34N 67°09' E 013°59'0 0.2
2015-Jul-16 15:32N 67°09' E 013°59'0 0.1
2015-Jul-16 14:33N 67°09' E 013°59'0 0.1
2015-Jul-16 13:33N 67°09' E 013°59'0 0.3
2015-Jul-16 12:32N 67°09' E 013°60'0 0.4
2015-Jul-16 11:33N 67°09' E 014°01'0 0.0
2015-Jul-16 10:33N 67°09' E 014°01'0 0.0
2015-Jul-16 09:33N 67°09' E 014°01'1 1.1
2015-Jul-16 08:33N 67°08' E 013°58'1 1.1
2015-Jul-16 07:33N 67°09' E 014°01'  

Dump ship's entire track history